Time;durP1;ratioP1;P1;durP2;ratioP2;P2;SDS_P1;SDS_P2;PMS_P1;PMS_P2;Temp;Humidity;BMP_temperature;BMP_pressure;BME280_temperature;BME280_humidity;BME280_pressure;Samples;Min_cycle;Max_cycle;Signal;HPM_P1;HPM_P2
2023/04/18 00:00:26;;;;;;;24.83;13.27;;;;;;;3.29;100.00;97713.00;5024394;28;20083;-60
2023/04/18 00:02:53;;;;;;;23.25;14.02;;;;;;;3.30;100.00;97707.44;5022241;28;20083;-60
2023/04/18 00:05:20;;;;;;;25.48;13.73;;;;;;;3.44;100.00;97704.84;5028612;28;20556;-60
2023/04/18 00:07:47;;;;;;;25.30;14.85;;;;;;;3.53;100.00;97710.88;5031159;28;20045;-60
2023/04/18 00:10:14;;;;;;;24.30;14.25;;;;;;;3.54;100.00;97705.31;5030730;28;20095;-59
2023/04/18 00:12:41;;;;;;;23.60;13.68;;;;;;;3.66;100.00;97702.06;5030134;28;20083;-60
2023/04/18 00:15:08;;;;;;;21.88;13.60;;;;;;;3.70;100.00;97698.81;5028681;28;20047;-60
2023/04/18 00:17:38;;;;;;;23.80;13.77;;;;;;;3.93;100.00;97697.66;5025027;28;20120;-61
2023/04/18 00:20:09;;;;;;;27.33;14.65;;;;;;;4.00;100.00;97695.00;5025082;28;20045;-61
2023/04/18 00:22:41;;;;;;;23.67;14.10;;;;;;;4.05;100.00;97689.03;5022447;28;20045;-60
2023/04/18 00:25:09;;;;;;;24.70;14.52;;;;;;;4.09;100.00;97682.25;5028881;28;20693;-59
2023/04/18 00:27:37;;;;;;;21.30;13.60;;;;;;;4.10;100.00;97676.69;5027682;28;20076;-60
2023/04/18 00:30:05;;;;;;;30.92;14.35;;;;;;;4.20;100.00;97683.50;5023763;28;20637;-61
2023/04/18 00:32:31;;;;;;;25.15;15.60;;;;;;;4.39;100.00;97679.22;5023083;28;20445;-60
2023/04/18 00:34:58;;;;;;;24.42;14.95;;;;;;;4.59;100.00;97673.03;5020393;28;20041;-59
2023/04/18 00:37:24;;;;;;;25.15;15.70;;;;;;;4.71;100.00;97674.06;5027196;28;20052;-59
2023/04/18 00:39:52;;;;;;;23.40;14.57;;;;;;;4.84;100.00;97670.56;5023300;28;20076;-59
2023/04/18 00:42:20;;;;;;;22.70;14.48;;;;;;;4.99;100.00;97659.59;5021949;28;20115;-59
2023/04/18 00:44:47;;;;;;;20.30;13.68;;;;;;;5.05;100.00;97653.38;5023688;28;20123;-59
2023/04/18 00:47:16;;;;;;;22.50;14.48;;;;;;;5.14;100.00;97659.38;5021441;28;20044;-59
2023/04/18 00:49:43;;;;;;;26.55;15.25;;;;;;;5.20;100.00;97661.19;5023847;28;20040;-60
2023/04/18 00:52:11;;;;;;;21.60;13.77;;;;;;;5.25;100.00;97663.28;5028890;28;20070;-59
2023/04/18 00:54:39;;;;;;;21.80;13.85;;;;;;;5.32;100.00;97666.78;5028893;28;20037;-58
2023/04/18 00:57:06;;;;;;;19.58;13.00;;;;;;;5.33;100.00;97662.22;5024266;28;20042;-59
2023/04/18 00:59:34;;;;;;;19.90;12.15;;;;;;;5.31;100.00;97658.91;5027550;28;20124;-59
2023/04/18 01:02:02;;;;;;;20.20;12.45;;;;;;;5.31;100.00;97658.91;5027467;28;20044;-60
2023/04/18 01:04:31;;;;;;;19.65;12.85;;;;;;;5.37;100.00;97659.91;5028944;28;20065;-59
2023/04/18 01:06:59;;;;;;;19.63;13.48;;;;;;;5.38;100.00;97657.03;5021350;28;20471;-58
2023/04/18 01:09:28;;;;;;;24.33;13.93;;;;;;;5.37;100.00;97651.84;5022197;28;20030;-59
2023/04/18 01:11:54;;;;;;;19.80;12.20;;;;;;;5.39;100.00;97653.31;5024141;28;20094;-59
2023/04/18 01:14:21;;;;;;;21.83;14.00;;;;;;;5.45;100.00;97648.94;5023260;28;20041;-59
2023/04/18 01:16:47;;;;;;;20.77;12.95;;;;;;;5.44;100.00;97641.94;5022937;28;20068;-59
2023/04/18 01:19:18;;;;;;;20.55;13.70;;;;;;;5.40;100.00;97641.53;5028727;28;20029;-60
2023/04/18 01:21:44;;;;;;;18.90;13.02;;;;;;;5.39;100.00;97629.16;5023886;28;20086;-59
2023/04/18 01:24:15;;;;;;;19.75;13.30;;;;;;;5.40;100.00;97638.00;5023277;28;20033;-60
2023/04/18 01:26:44;;;;;;;18.70;12.15;;;;;;;5.42;100.00;97634.06;5024331;28;20091;-59
2023/04/18 01:29:10;;;;;;;22.80;13.35;;;;;;;5.45;100.00;97639.03;5031833;28;20607;-60
2023/04/18 01:31:38;;;;;;;20.73;12.65;;;;;;;5.49;100.00;97634.06;5019629;28;20057;-59
2023/04/18 01:34:06;;;;;;;18.60;12.45;;;;;;;5.57;100.00;97633.00;5034031;28;20040;-59
2023/04/18 01:36:34;;;;;;;17.15;11.82;;;;;;;5.56;100.00;97623.28;5023117;28;20054;-59
2023/04/18 01:39:01;;;;;;;22.05;13.63;;;;;;;5.55;100.00;97624.31;5028684;28;20064;-60
2023/04/18 01:41:31;;;;;;;19.73;11.85;;;;;;;5.61;100.00;97623.50;5022251;28;20049;-59
2023/04/18 01:43:58;;;;;;;19.65;12.63;;;;;;;5.63;100.00;97623.28;5013934;28;20057;-59
2023/04/18 01:46:25;;;;;;;18.42;11.48;;;;;;;5.63;100.00;97620.59;5018615;28;20100;-59
2023/04/18 01:48:52;;;;;;;24.58;13.45;;;;;;;5.66;100.00;97617.44;5017656;28;20045;-59
2023/04/18 01:51:19;;;;;;;20.10;12.60;;;;;;;5.58;100.00;97614.00;5018611;28;20714;-59
2023/04/18 01:53:46;;;;;;;18.77;12.52;;;;;;;5.68;100.00;97613.50;5020653;28;20053;-60
2023/04/18 01:56:12;;;;;;;19.35;12.10;;;;;;;5.62;100.00;97603.63;5023863;28;20045;-59
2023/04/18 01:58:40;;;;;;;18.02;11.30;;;;;;;5.65;100.00;97610.44;5013316;28;20069;-60
2023/04/18 02:01:07;;;;;;;17.38;11.65;;;;;;;5.62;100.00;97606.31;5018870;28;20221;-60
2023/04/18 02:03:34;;;;;;;19.63;11.50;;;;;;;5.65;100.00;97605.06;5023266;28;20061;-59
2023/04/18 02:06:02;;;;;;;17.75;11.52;;;;;;;5.66;100.00;97607.53;5022759;28;20046;-59
2023/04/18 02:08:29;;;;;;;16.77;11.20;;;;;;;5.64;100.00;97603.44;5027688;28;20091;-59
2023/04/18 02:10:56;;;;;;;16.90;10.18;;;;;;;5.64;100.00;97606.91;5024205;28;20444;-59
2023/04/18 02:13:22;;;;;;;18.80;11.35;;;;;;;5.60;100.00;97611.91;5022792;28;20062;-59
2023/04/18 02:15:49;;;;;;;15.30;10.20;;;;;;;5.62;100.00;97606.31;5024433;28;20041;-59
2023/04/18 02:18:17;;;;;;;15.00;10.40;;;;;;;5.57;100.00;97601.59;5026838;28;20698;-59
2023/04/18 02:20:45;;;;;;;17.40;11.15;;;;;;;5.44;100.00;97604.31;5027108;28;20120;-60
2023/04/18 02:23:11;;;;;;;18.95;11.85;;;;;;;5.46;100.00;97607.63;5023159;28;20042;-60
2023/04/18 02:25:38;;;;;;;17.75;11.40;;;;;;;5.46;100.00;97608.44;5026530;28;20049;-60
2023/04/18 02:28:04;;;;;;;15.68;10.88;;;;;;;5.53;100.00;97610.28;5030527;28;20051;-59
2023/04/18 02:30:31;;;;;;;19.25;11.60;;;;;;;5.47;100.00;97602.06;5025876;28;20049;-60
2023/04/18 02:33:00;;;;;;;19.70;12.05;;;;;;;5.45;100.00;97614.03;5028724;28;20056;-59
2023/04/18 02:35:27;;;;;;;17.10;10.80;;;;;;;5.49;100.00;97606.38;5021405;28;20132;-60
2023/04/18 02:37:54;;;;;;;18.63;11.85;;;;;;;5.44;100.00;97613.22;5024345;28;20044;-60
2023/04/18 02:40:20;;;;;;;17.88;12.40;;;;;;;5.50;100.00;97608.03;5025854;28;20052;-59
2023/04/18 02:42:47;;;;;;;17.55;11.15;;;;;;;5.53;100.00;97611.09;5019252;28;20069;-59
2023/04/18 02:45:14;;;;;;;19.42;10.82;;;;;;;5.58;100.00;97608.63;5016953;28;20038;-60
2023/04/18 02:47:41;;;;;;;16.77;10.55;;;;;;;5.57;100.00;97609.63;5024201;28;20037;-60
2023/04/18 02:50:21;;;;;;;18.05;10.55;;;;;;;5.66;100.00;97604.84;5020641;28;20804;-59
2023/04/18 02:52:48;;;;;;;16.42;11.02;;;;;;;5.76;100.00;97599.03;5018964;28;20041;-60
2023/04/18 02:55:17;;;;;;;19.33;11.20;;;;;;;5.70;100.00;97603.38;5026655;28;20660;-60
2023/04/18 02:57:44;;;;;;;17.25;11.20;;;;;;;5.60;100.00;97606.53;5026087;28;20076;-60
2023/04/18 03:00:29;;;;;;;17.80;11.32;;;;;;;5.49;100.00;97606.38;5031670;28;20244;-59
2023/04/18 03:03:11;;;;;;;19.25;12.38;;;;;;;5.40;100.00;97605.78;5029928;28;20045;-59
2023/04/18 03:05:48;;;;;;;20.05;11.70;;;;;;;5.50;100.00;97600.81;5027796;28;20048;-58
2023/04/18 03:08:15;;;;;;;18.20;11.32;;;;;;;5.34;100.00;97604.78;5028928;28;20038;-59
2023/04/18 03:10:41;;;;;;;18.08;11.15;;;;;;;5.22;100.00;97607.31;5025406;28;20037;-59
2023/04/18 03:13:08;;;;;;;17.30;11.05;;;;;;;5.20;100.00;97607.50;5031740;28;21016;-60
2023/04/18 03:15:36;;;;;;;17.58;11.13;;;;;;;5.19;100.00;97610.41;5026016;28;20141;-59
2023/04/18 03:18:04;;;;;;;20.45;11.90;;;;;;;5.21;100.00;97608.34;5024615;28;20696;-59
2023/04/18 03:20:33;;;;;;;18.73;11.57;;;;;;;5.21;100.00;97601.09;5024082;28;20049;-59
2023/04/18 03:23:00;;;;;;;17.85;11.80;;;;;;;5.26;100.00;97602.31;5022962;28;20064;-59
2023/04/18 03:25:28;;;;;;;17.55;12.40;;;;;;;5.31;100.00;97605.22;5023415;28;20102;-59
2023/04/18 03:27:56;;;;;;;19.65;11.88;;;;;;;5.27;100.00;97604.00;5024670;28;20033;-59
2023/04/18 03:30:24;;;;;;;19.83;12.05;;;;;;;5.25;100.00;97598.84;5027820;28;20124;-59
2023/04/18 03:32:54;;;;;;;20.08;12.77;;;;;;;5.12;100.00;97607.75;5023538;28;20073;-60
2023/04/18 03:35:21;;;;;;;19.67;13.13;;;;;;;5.12;100.00;97601.56;5025098;28;20046;-59
2023/04/18 03:37:48;;;;;;;18.67;11.85;;;;;;;5.19;100.00;97603.19;5017486;28;20059;-60
2023/04/18 03:40:22;;;;;;;19.30;12.93;;;;;;;5.13;100.00;97605.88;5022283;28;20038;-59
2023/04/18 03:42:51;;;;;;;18.65;12.27;;;;;;;5.01;100.00;97605.72;5020327;28;20127;-59
2023/04/18 03:45:18;;;;;;;18.02;12.20;;;;;;;5.07;100.00;97602.19;5025234;28;20069;-59
2023/04/18 03:47:45;;;;;;;19.63;13.13;;;;;;;4.91;100.00;97595.41;5020077;28;20679;-58
2023/04/18 03:50:12;;;;;;;19.23;12.68;;;;;;;4.91;100.00;97603.47;5025606;28;20038;-59
2023/04/18 03:52:40;;;;;;;21.05;13.30;;;;;;;4.86;100.00;97597.91;5021823;28;20057;-60
2023/04/18 03:55:07;;;;;;;21.63;13.40;;;;;;;4.78;100.00;97602.44;5028127;28;20508;-60
2023/04/18 03:57:34;;;;;;;21.35;12.55;;;;;;;4.90;100.00;97599.13;5024028;28;20045;-59
2023/04/18 04:00:06;;;;;;;20.98;12.90;;;;;;;4.88;100.00;97599.34;5026152;28;20505;-59
2023/04/18 04:02:41;;;;;;;20.10;12.95;;;;;;;4.74;100.00;97601.22;5032719;28;20057;-60
2023/04/18 04:05:10;;;;;;;21.45;13.15;;;;;;;4.73;100.00;97602.25;5024712;28;20041;-58
2023/04/18 04:07:36;;;;;;;21.80;13.43;;;;;;;4.76;100.00;97599.13;5027738;28;20063;-58
2023/04/18 04:10:05;;;;;;;20.75;12.60;;;;;;;4.81;100.00;97601.22;5022906;28;20071;-59
2023/04/18 04:12:31;;;;;;;20.67;13.20;;;;;;;4.76;100.00;97612.56;5027111;28;20040;-58
2023/04/18 04:14:58;;;;;;;19.83;12.88;;;;;;;4.73;100.00;97613.00;5038722;28;20045;-58
2023/04/18 04:17:25;;;;;;;17.52;12.10;;;;;;;4.82;100.00;97614.41;5028633;28;20060;-60
2023/04/18 04:19:52;;;;;;;19.40;13.38;;;;;;;4.79;100.00;97614.81;5035022;28;20041;-59
2023/04/18 04:22:19;;;;;;;23.02;14.07;;;;;;;4.68;100.00;97616.28;5027807;28;20045;-59
2023/04/18 04:24:46;;;;;;;23.58;14.18;;;;;;;4.71;100.00;97616.91;5021265;28;20639;-59
2023/04/18 04:27:17;;;;;;;22.63;14.93;;;;;;;4.73;100.00;97621.03;5021603;28;20576;-59
2023/04/18 04:29:44;;;;;;;22.65;14.50;;;;;;;4.67;100.00;97621.84;5027411;28;20048;-59
2023/04/18 04:32:12;;;;;;;21.05;13.82;;;;;;;4.61;100.00;97623.50;5034299;28;20048;-59
2023/04/18 04:34:40;;;;;;;26.60;13.93;;;;;;;4.58;100.00;97626.63;5027782;28;20057;-59
2023/04/18 04:37:09;;;;;;;19.67;12.77;;;;;;;4.59;100.00;97627.44;5036522;28;20046;-59
2023/04/18 04:39:45;;;;;;;20.52;14.13;;;;;;;4.56;100.00;97625.97;5032568;28;20084;-59
2023/04/18 04:42:25;;;;;;;21.42;13.38;;;;;;;4.60;100.00;97626.41;5026810;28;20049;-58
2023/04/18 04:44:58;;;;;;;21.35;13.43;;;;;;;4.66;100.00;97629.09;5032750;28;20045;-59
2023/04/18 04:47:25;;;;;;;23.65;14.60;;;;;;;4.62;100.00;97619.81;5032031;28;20044;-58
2023/04/18 04:49:52;;;;;;;22.45;13.88;;;;;;;4.65;100.00;97618.56;5039252;28;20508;-58
2023/04/18 04:52:19;;;;;;;19.05;12.43;;;;;;;4.61;100.00;97622.69;5029999;28;20072;-59
2023/04/18 04:54:45;;;;;;;18.98;11.98;;;;;;;4.61;100.00;97620.81;5025728;28;20385;-59
2023/04/18 04:57:14;;;;;;;18.83;12.75;;;;;;;4.61;100.00;97617.34;5025656;28;20685;-57
2023/04/18 04:59:41;;;;;;;20.65;12.57;;;;;;;4.63;100.00;97620.63;5020789;28;20037;-58
2023/04/18 05:02:08;;;;;;;22.55;13.10;;;;;;;4.56;100.00;97625.97;5021218;28;20065;-59
2023/04/18 05:04:35;;;;;;;23.27;13.85;;;;;;;4.58;100.00;97623.94;5028036;28;20099;-60
2023/04/18 05:07:01;;;;;;;20.67;12.65;;;;;;;4.63;100.00;97626.81;5026812;28;20095;-59
2023/04/18 05:09:28;;;;;;;18.13;12.93;;;;;;;4.53;100.00;97634.44;5016881;28;20043;-60
2023/04/18 05:11:54;;;;;;;19.73;12.75;;;;;;;4.56;100.00;97631.34;5016210;28;20179;-59
2023/04/18 05:14:21;;;;;;;20.63;12.40;;;;;;;4.64;100.00;97633.81;5022519;28;20733;-59
2023/04/18 05:16:48;;;;;;;16.85;12.15;;;;;;;4.64;100.00;97636.50;5027114;28;20096;-59
2023/04/18 05:19:14;;;;;;;17.88;12.38;;;;;;;4.66;100.00;97636.31;5024189;28;20587;-59
2023/04/18 05:21:41;;;;;;;20.02;12.30;;;;;;;4.79;100.00;97633.59;5022354;28;20124;-59
2023/04/18 05:24:07;;;;;;;20.67;11.55;;;;;;;4.85;100.00;97642.69;5024292;28;20781;-59
2023/04/18 05:26:34;;;;;;;20.35;12.32;;;;;;;4.79;100.00;97644.34;5021742;28;20053;-59
2023/04/18 05:29:00;;;;;;;18.85;12.65;;;;;;;4.84;100.00;97651.78;5025587;28;20041;-60
2023/04/18 05:31:27;;;;;;;22.13;13.30;;;;;;;4.86;100.00;97647.00;5024017;28;20105;-60
2023/04/18 05:33:54;;;;;;;17.88;11.73;;;;;;;4.81;100.00;97647.66;5022053;28;20103;-59
2023/04/18 05:36:21;;;;;;;19.17;12.20;;;;;;;4.74;100.00;97646.81;5022871;28;20041;-58
2023/04/18 05:38:48;;;;;;;18.52;11.55;;;;;;;4.86;100.00;97635.47;5025916;28;20497;-60
2023/04/18 05:41:14;;;;;;;22.73;12.70;;;;;;;4.97;100.00;97647.44;5025425;28;20056;-60
2023/04/18 05:43:41;;;;;;;19.90;11.10;;;;;;;4.94;100.00;97629.88;5028157;28;20045;-59
2023/04/18 05:46:11;;;;;;;19.20;11.63;;;;;;;4.95;100.00;97635.03;5024072;28;20041;-60
2023/04/18 05:48:38;;;;;;;18.85;12.05;;;;;;;4.75;100.00;97632.38;5030514;28;20123;-60
2023/04/18 05:51:04;;;;;;;18.75;12.05;;;;;;;4.83;100.00;97642.06;5033020;28;20579;-58
2023/04/18 05:53:31;;;;;;;19.63;12.38;;;;;;;4.76;100.00;97642.06;5033138;28;20517;-59
2023/04/18 05:55:58;;;;;;;17.58;12.30;;;;;;;4.74;100.00;97643.31;5030553;28;20044;-60
2023/04/18 05:58:27;;;;;;;19.10;12.50;;;;;;;4.81;100.00;97641.44;5030460;28;20547;-60
2023/04/18 06:00:54;;;;;;;20.60;12.25;;;;;;;4.95;100.00;97653.00;5026495;28;20566;-60
2023/04/18 06:03:20;;;;;;;19.10;11.23;;;;;;;4.94;100.00;97648.69;5038864;28;20100;-60
2023/04/18 06:05:47;;;;;;;20.42;12.38;;;;;;;4.93;100.00;97652.38;5022657;28;20037;-59
2023/04/18 06:08:13;;;;;;;21.38;11.73;;;;;;;4.97;100.00;97647.44;5035478;28;20037;-60
2023/04/18 06:10:40;;;;;;;18.10;12.30;;;;;;;4.82;100.00;97660.03;5026771;28;20124;-60
2023/04/18 06:13:06;;;;;;;18.17;12.00;;;;;;;4.84;100.00;97664.34;5026480;28;20133;-60
2023/04/18 06:15:33;;;;;;;22.52;12.10;;;;;;;4.96;100.00;97665.38;5021421;28;20484;-59
2023/04/18 06:18:00;;;;;;;20.10;12.48;;;;;;;4.88;100.00;97658.38;5035739;28;20047;-60
2023/04/18 06:20:27;;;;;;;20.10;12.32;;;;;;;4.97;100.00;97672.38;5031167;28;20120;-60
2023/04/18 06:22:53;;;;;;;19.95;12.25;;;;;;;4.93;100.00;97673.84;5030767;28;20053;-60
2023/04/18 06:25:19;;;;;;;18.55;12.60;;;;;;;5.16;100.00;97670.72;5032328;28;20049;-60
2023/04/18 06:27:46;;;;;;;20.85;12.90;;;;;;;5.45;100.00;97665.88;5031010;28;20666;-60
2023/04/18 06:30:12;;;;;;;18.90;11.52;;;;;;;5.53;100.00;97667.50;5036971;28;20064;-60
2023/04/18 06:32:39;;;;;;;17.23;10.65;;;;;;;5.52;100.00;97654.28;5032939;28;20130;-61
2023/04/18 06:35:06;;;;;;;19.05;12.15;;;;;;;5.65;100.00;97662.31;5031763;28;20042;-60
2023/04/18 06:37:33;;;;;;;18.65;11.93;;;;;;;5.62;100.00;97661.91;5034050;28;20678;-60
2023/04/18 06:39:59;;;;;;;19.70;13.05;;;;;;;5.65;100.00;97662.31;5040435;28;20098;-61
2023/04/18 06:42:26;;;;;;;17.77;11.60;;;;;;;5.75;100.00;97663.72;5029502;28;20096;-60
2023/04/18 06:44:53;;;;;;;18.13;11.35;;;;;;;5.89;100.00;97672.56;5035722;28;20505;-60
2023/04/18 06:47:19;;;;;;;21.23;11.52;;;;;;;5.94;100.00;97659.28;5040393;28;20053;-61
2023/04/18 06:49:46;;;;;;;19.67;11.18;;;;;;;5.97;100.00;97669.63;5029724;28;20041;-60
2023/04/18 06:52:12;;;;;;;18.27;11.88;;;;;;;5.80;100.00;97675.47;5035326;28;20116;-59
2023/04/18 06:54:39;;;;;;;19.17;12.80;;;;;;;5.65;100.00;97674.91;5033348;28;20038;-61
2023/04/18 06:57:05;;;;;;;20.75;12.82;;;;;;;5.62;100.00;97676.16;5031823;28;20049;-60
2023/04/18 06:59:32;;;;;;;19.45;11.80;;;;;;;5.80;100.00;97678.19;5032414;28;20037;-60
2023/04/18 07:01:58;;;;;;;17.02;11.32;;;;;;;5.76;100.00;97684.16;5036062;28;20575;-59
2023/04/18 07:04:25;;;;;;;18.00;11.07;;;;;;;5.95;100.00;97669.84;5041119;28;20140;-61
2023/04/18 07:06:51;;;;;;;16.63;10.73;;;;;;;6.08;100.00;97671.66;5033795;28;20049;-62
2023/04/18 07:09:18;;;;;;;18.50;11.93;;;;;;;6.02;100.00;97674.34;5042850;28;20120;-60
2023/04/18 07:11:45;;;;;;;19.38;11.30;;;;;;;6.07;100.00;97675.38;5030111;28;20068;-61
2023/04/18 07:14:11;;;;;;;19.58;12.15;;;;;;;6.03;100.00;97671.47;5025459;28;20067;-61
2023/04/18 07:16:38;;;;;;;18.88;11.77;;;;;;;5.94;100.00;97673.53;5028013;28;20053;-61
2023/04/18 07:19:05;;;;;;;18.80;11.48;;;;;;;6.13;100.00;97679.06;5041170;28;20059;-61
2023/04/18 07:21:32;;;;;;;17.88;11.73;;;;;;;6.10;100.00;97679.50;5030844;28;20065;-60
2023/04/18 07:23:58;;;;;;;16.95;11.80;;;;;;;6.20;100.00;97681.72;5038059;28;20049;-60
2023/04/18 07:26:26;;;;;;;20.65;12.30;;;;;;;6.15;100.00;97678.88;5036041;28;20132;-61
2023/04/18 07:28:52;;;;;;;18.42;12.80;;;;;;;6.03;100.00;97681.34;5038062;28;20591;-59
2023/04/18 07:31:19;;;;;;;17.42;11.50;;;;;;;6.06;100.00;97671.03;5034727;28;20045;-60
2023/04/18 07:33:46;;;;;;;19.80;12.52;;;;;;;5.86;100.00;97681.84;5026818;28;20480;-60
2023/04/18 07:36:12;;;;;;;18.05;11.50;;;;;;;5.83;100.00;97685.78;5041076;28;20472;-60
2023/04/18 07:38:39;;;;;;;18.15;11.65;;;;;;;5.89;100.00;97683.31;5031248;28;20119;-59
2023/04/18 07:41:05;;;;;;;17.42;11.95;;;;;;;6.10;100.00;97682.19;5036594;28;20053;-61
2023/04/18 07:43:32;;;;;;;19.70;11.63;;;;;;;6.03;100.00;97681.34;5026271;28;20103;-59
2023/04/18 07:45:58;;;;;;;16.23;11.23;;;;;;;6.18;100.00;97687.31;5023087;28;20069;-59
2023/04/18 07:48:25;;;;;;;19.25;11.68;;;;;;;6.26;100.00;97686.22;5030555;28;20088;-60
2023/04/18 07:50:52;;;;;;;18.27;11.60;;;;;;;6.36;100.00;97683.06;5030055;28;20037;-59
2023/04/18 07:53:19;;;;;;;19.10;10.93;;;;;;;6.29;100.00;97693.03;5032237;28;20120;-60
2023/04/18 07:55:45;;;;;;;16.77;11.00;;;;;;;6.55;100.00;97693.91;5031231;28;20077;-61
2023/04/18 07:58:12;;;;;;;19.15;10.90;;;;;;;6.53;100.00;97688.75;5035964;28;20045;-59
2023/04/18 08:00:41;;;;;;;22.23;11.48;;;;;;;6.45;100.00;97695.22;5035631;28;20045;-59
2023/04/18 08:03:10;;;;;;;17.23;11.63;;;;;;;6.46;100.00;97694.19;5034312;28;20041;-61
2023/04/18 08:05:39;;;;;;;19.90;12.38;;;;;;;6.22;100.00;97701.97;5025703;28;20597;-61
2023/04/18 08:08:07;;;;;;;19.00;12.00;;;;;;;6.50;100.00;97703.44;5031327;28;20040;-61
2023/04/18 08:10:34;;;;;;;19.73;11.50;;;;;;;6.43;100.00;97704.53;5040220;28;20040;-61
2023/04/18 08:13:01;;;;;;;18.65;10.95;;;;;;;6.67;99.79;97708.28;5022038;28;20051;-61
2023/04/18 08:15:28;;;;;;;18.00;10.85;;;;;;;6.76;99.33;97701.63;5019850;28;20487;-60
2023/04/18 08:17:54;;;;;;;18.02;11.25;;;;;;;6.94;98.81;97704.59;5037545;28;20110;-60
2023/04/18 08:20:22;;;;;;;16.92;11.10;;;;;;;6.73;98.75;97707.44;5032729;28;20060;-61
2023/04/18 08:22:48;;;;;;;18.08;11.77;;;;;;;6.62;100.00;97706.28;5018475;28;20047;-60
2023/04/18 08:25:34;;;;;;;17.27;10.63;;;;;;;6.99;98.65;97707.44;5032356;28;20044;-61
2023/04/18 08:28:01;;;;;;;19.75;12.25;;;;;;;7.00;98.98;97706.38;5032415;28;20669;-62
2023/04/18 08:30:28;;;;;;;17.75;10.75;;;;;;;7.14;98.49;97699.84;5025434;28;20128;-60
2023/04/18 08:32:54;;;;;;;19.27;11.70;;;;;;;7.12;99.50;97701.94;5031673;28;20053;-61
2023/04/18 08:35:21;;;;;;;26.10;12.93;;;;;;;6.97;99.57;97696.88;5036867;28;20049;-59
2023/04/18 08:37:47;;;;;;;19.30;12.77;;;;;;;7.18;98.58;97697.53;5034622;28;20079;-59
2023/04/18 08:40:14;;;;;;;17.77;11.40;;;;;;;7.16;99.15;97695.06;5028019;28;20041;-60
2023/04/18 08:42:45;;;;;;;19.05;11.70;;;;;;;7.34;98.45;97706.91;5034156;28;20527;-60
2023/04/18 08:45:13;;;;;;;19.35;12.02;;;;;;;7.36;98.54;97704.81;5035732;28;20037;-59
2023/04/18 08:47:42;;;;;;;16.25;10.63;;;;;;;7.71;97.39;97702.59;5035380;28;20044;-59
2023/04/18 08:50:09;;;;;;;16.80;10.95;;;;;;;7.61;98.16;97703.09;5037963;28;20080;-60
2023/04/18 08:52:38;;;;;;;17.33;11.30;;;;;;;7.55;98.21;97707.50;5027851;28;20166;-60
2023/04/18 08:55:05;;;;;;;17.25;10.95;;;;;;;7.97;97.04;97711.41;5024474;28;20040;-60
2023/04/18 08:57:32;;;;;;;16.08;10.80;;;;;;;8.11;95.61;97715.56;5028100;28;20493;-60
2023/04/18 09:00:01;;;;;;;18.90;11.10;;;;;;;8.26;94.19;97708.97;5033715;28;20037;-60
2023/04/18 09:02:37;;;;;;;17.58;10.52;;;;;;;8.32;93.16;97710.72;5039503;28;20053;-61
2023/04/18 09:05:15;;;;;;;18.50;10.95;;;;;;;7.97;95.71;97711.41;5024234;28;20041;-60
2023/04/18 09:07:42;;;;;;;20.48;11.65;;;;;;;7.95;96.83;97717.03;5034711;28;20159;-61
2023/04/18 09:10:09;;;;;;;23.67;13.25;;;;;;;7.97;97.01;97716.78;5034812;28;20607;-60
2023/04/18 09:12:55;;;;;;;17.73;12.25;;;;;;;7.99;96.42;97720.09;5030446;28;20057;-60
2023/04/18 09:15:25;;;;;;;18.88;12.98;;;;;;;7.87;95.88;97714.63;5033318;28;20482;-60
2023/04/18 09:17:54;;;;;;;21.83;13.77;;;;;;;7.93;96.30;97713.75;5029376;28;20064;-60
2023/04/18 09:20:26;;;;;;;20.20;11.60;;;;;;;8.32;95.11;97710.72;5031989;28;20036;-61
2023/04/18 09:22:56;;;;;;;19.70;12.13;;;;;;;8.27;94.80;97708.75;5030465;28;20599;-60
2023/04/18 09:25:36;;;;;;;17.90;11.63;;;;;;;8.23;95.86;97699.44;5025703;28;20163;-61
2023/04/18 09:28:27;;;;;;;18.42;12.18;;;;;;;8.52;93.56;97698.84;5031274;28;20073;-59
2023/04/18 09:30:55;;;;;;;18.85;12.30;;;;;;;8.30;94.93;97708.25;5021475;28;20041;-59
2023/04/18 09:33:35;;;;;;;19.95;12.55;;;;;;;8.28;94.15;97710.38;5027176;28;20049;-61
2023/04/18 09:36:18;;;;;;;19.20;12.10;;;;;;;8.10;95.67;97716.63;5021037;28;20045;-61
2023/04/18 09:38:46;;;;;;;18.58;11.70;;;;;;;8.17;96.43;97708.44;5034890;28;20064;-60
2023/04/18 09:41:15;;;;;;;18.25;11.65;;;;;;;8.31;95.57;97709.09;5037091;28;20071;-60
2023/04/18 09:43:46;;;;;;;19.77;11.40;;;;;;;8.63;93.89;97716.16;5032623;28;20048;-60
2023/04/18 09:46:13;;;;;;;20.40;12.27;;;;;;;8.25;94.26;97726.22;5039215;28;20120;-60
2023/04/18 09:48:40;;;;;;;17.42;11.60;;;;;;;8.11;95.82;97720.97;5036380;28;20044;-60
2023/04/18 09:51:09;;;;;;;16.70;11.25;;;;;;;8.34;95.20;97716.75;5036837;28;20041;-60
2023/04/18 09:53:38;;;;;;;16.88;11.05;;;;;;;8.50;94.40;97711.72;5033091;28;20045;-61
2023/04/18 09:56:07;;;;;;;19.90;12.60;;;;;;;8.51;94.42;97716.91;5038527;28;20116;-59
2023/04/18 09:58:40;;;;;;;17.67;11.13;;;;;;;8.68;93.03;97722.50;5037480;28;20056;-60
2023/04/18 10:01:07;;;;;;;19.80;11.98;;;;;;;8.74;92.53;97719.94;5026938;28;20041;-61
2023/04/18 10:03:43;;;;;;;17.98;10.98;;;;;;;8.85;92.34;97716.44;5036084;28;20045;-61
2023/04/18 10:06:10;;;;;;;19.08;13.85;;;;;;;8.70;94.19;97708.78;5027039;28;20068;-59
2023/04/18 10:08:38;;;;;;;18.20;12.15;;;;;;;8.91;92.28;97712.78;5030012;28;20167;-59
2023/04/18 10:11:05;;;;;;;17.10;11.45;;;;;;;9.08;91.24;97704.84;5038862;28;20037;-60
2023/04/18 10:13:34;;;;;;;19.67;12.10;;;;;;;8.77;93.40;97716.78;5036535;28;20113;-57
2023/04/18 10:16:01;;;;;;;17.95;11.25;;;;;;;8.91;92.97;97712.78;5033454;28;20090;-61
2023/04/18 10:18:28;;;;;;;18.30;12.20;;;;;;;8.88;93.87;97709.75;5037174;28;20091;-60
2023/04/18 10:21:04;;;;;;;16.38;10.25;;;;;;;9.26;92.42;97710.34;5036058;28;20048;-60
2023/04/18 10:23:31;;;;;;;17.42;11.38;;;;;;;9.60;90.35;97702.47;5035133;28;20046;-59
2023/04/18 10:25:58;;;;;;;16.00;10.70;;;;;;;9.62;90.08;97698.47;5036960;28;20944;-60
2023/04/18 10:28:26;;;;;;;17.58;10.82;;;;;;;9.95;88.45;97704.25;5034555;28;20059;-59
2023/04/18 10:31:02;;;;;;;16.52;11.65;;;;;;;9.86;89.13;97694.88;5034661;28;20056;-60
2023/04/18 10:33:37;;;;;;;17.02;10.95;;;;;;;10.17;86.60;97703.59;5028043;28;20528;-59
2023/04/18 10:36:07;;;;;;;16.27;11.10;;;;;;;10.03;87.53;97705.78;5030820;28;20424;-60
2023/04/18 10:38:44;;;;;;;19.58;11.90;;;;;;;9.81;88.76;97700.19;5037209;28;20099;-60
2023/04/18 10:41:29;;;;;;;17.10;11.07;;;;;;;9.96;87.90;97696.97;5034360;28;20129;-59
2023/04/18 10:44:07;;;;;;;16.75;10.95;;;;;;;10.06;88.16;97694.47;5029581;28;20053;-60
2023/04/18 10:46:49;;;;;;;17.05;11.45;;;;;;;9.92;88.73;97696.66;5020652;28;20049;-60
2023/04/18 10:49:16;;;;;;;15.05;10.43;;;;;;;9.88;87.45;97700.88;5034714;28;20068;-60
2023/04/18 10:51:44;;;;;;;15.38;11.00;;;;;;;10.01;86.62;97692.50;5029944;28;20066;-59
2023/04/18 10:54:37;;;;;;;14.30;10.15;;;;;;;10.14;86.26;97695.97;5030426;28;20128;-60
2023/04/18 10:57:06;;;;;;;15.48;10.52;;;;;;;10.23;86.20;97691.81;5027300;28;20385;-60
2023/04/18 10:59:37;;;;;;;16.55;10.00;;;;;;;10.32;85.65;97696.84;5036475;28;20096;-60
2023/04/18 11:02:18;;;;;;;14.27;9.40;;;;;;;10.26;85.23;97687.81;5027574;28;20078;-60
2023/04/18 11:04:53;;;;;;;14.82;9.93;;;;;;;10.28;84.53;97691.91;5024703;28;20412;-60
2023/04/18 11:07:34;;;;;;;12.57;8.40;;;;;;;10.34;83.04;97679.31;5021509;28;20068;-61
2023/04/18 11:10:02;;;;;;;15.65;9.93;;;;;;;10.48;82.77;97682.56;5026876;28;20036;-61
2023/04/18 11:12:33;;;;;;;13.55;9.25;;;;;;;10.47;82.54;97672.78;5033112;28;20049;-61
2023/04/18 11:15:08;;;;;;;16.50;9.15;;;;;;;10.36;82.39;97670.94;5030060;28;20064;-60
2023/04/18 11:17:34;;;;;;;13.27;8.50;;;;;;;10.39;82.32;97673.97;5039607;28;20072;-60
2023/04/18 11:20:13;;;;;;;13.13;9.15;;;;;;;10.35;83.56;97672.81;5024556;28;20404;-61
2023/04/18 11:22:57;;;;;;;12.90;9.30;;;;;;;10.56;83.03;97658.84;5032474;28;20065;-60
2023/04/18 11:25:30;;;;;;;12.75;7.97;;;;;;;10.62;82.83;97668.72;5037655;28;20116;-60